createdAt,value
2018-09-29T00:00:46.721Z,52.00
2018-09-29T00:01:48.953Z,51.40
2018-09-29T00:02:51.122Z,51.00
2018-09-29T00:03:53.317Z,50.30
2018-09-29T00:04:55.538Z,50.20
2018-09-29T00:05:57.714Z,51.90
2018-09-29T00:06:59.908Z,51.90
2018-09-29T00:08:02.071Z,51.30
2018-09-29T00:09:06.745Z,50.20
2018-09-29T00:10:08.983Z,50.80
2018-09-29T00:11:11.090Z,50.90
2018-09-29T00:12:13.361Z,51.20
2018-09-29T00:13:15.558Z,49.80
2018-09-29T00:14:17.817Z,50.40
2018-09-29T00:15:20.026Z,51.10
2018-09-29T00:16:22.240Z,51.50
2018-09-29T00:17:24.441Z,51.70
2018-09-29T00:18:26.600Z,51.60
2018-09-29T00:19:28.758Z,49.90
2018-09-29T00:20:30.974Z,49.80
2018-09-29T00:21:33.702Z,49.90
2018-09-29T00:22:35.859Z,49.70
2018-09-29T00:23:38.031Z,49.90
2018-09-29T00:24:40.255Z,50.30
2018-09-29T00:25:42.481Z,49.80
2018-09-29T00:26:44.638Z,49.90
2018-09-29T00:27:47.006Z,49.20
2018-09-29T00:28:49.242Z,49.90
2018-09-29T00:29:51.430Z,50.10
2018-09-29T00:30:53.640Z,49.80
2018-09-29T00:31:55.816Z,49.80
2018-09-29T00:32:57.972Z,48.20
2018-09-29T00:34:00.128Z,48.50
2018-09-29T00:35:02.359Z,48.60
2018-09-29T00:36:04.554Z,48.00
2018-09-29T00:37:06.733Z,48.40
2018-09-29T00:38:08.913Z,48.30
2018-09-29T00:39:11.073Z,49.20
2018-09-29T00:40:13.425Z,48.30
2018-09-29T00:41:16.085Z,48.70
2018-09-29T00:42:18.265Z,47.80
2018-09-29T00:43:20.565Z,47.70
2018-09-29T00:44:22.734Z,47.40
2018-09-29T00:45:24.981Z,47.50
2018-09-29T00:46:27.141Z,47.70
2018-09-29T00:47:29.341Z,47.70
2018-09-29T00:48:31.546Z,48.20
2018-09-29T00:49:33.814Z,48.40
2018-09-29T00:50:36.017Z,48.50
2018-09-29T00:51:38.221Z,47.70
2018-09-29T00:52:40.441Z,47.20
2018-09-29T00:53:42.674Z,48.80
2018-09-29T00:54:44.859Z,48.10
2018-09-29T00:55:47.066Z,48.40
2018-09-29T00:56:49.221Z,46.90
2018-09-29T00:57:51.393Z,47.30
2018-09-29T00:58:53.554Z,47.10
2018-09-29T00:59:55.717Z,47.50
2018-09-29T01:00:57.954Z,47.50
2018-09-29T01:02:00.149Z,47.70
2018-09-29T01:03:02.320Z,47.40
2018-09-29T01:04:04.564Z,47.30
2018-09-29T01:05:06.791Z,47.90
2018-09-29T01:06:09.083Z,48.30
2018-09-29T01:07:11.298Z,47.40
2018-09-29T01:08:13.510Z,47.30
2018-09-29T01:09:15.714Z,47.20
2018-09-29T01:10:18.105Z,47.20
2018-09-29T01:11:20.351Z,46.90
2018-09-29T01:12:22.614Z,47.20
2018-09-29T01:13:24.835Z,47.90
2018-09-29T01:14:27.009Z,47.70
2018-09-29T01:15:29.225Z,47.40
2018-09-29T01:16:31.444Z,47.30
2018-09-29T01:17:33.626Z,48.70
2018-09-29T01:18:35.802Z,48.50
2018-09-29T01:19:38.190Z,47.50
2018-09-29T01:20:40.393Z,47.50
2018-09-29T01:21:42.637Z,47.70
2018-09-29T01:22:44.858Z,48.50
2018-09-29T01:23:47.078Z,48.00
2018-09-29T01:24:49.239Z,47.80
2018-09-29T01:25:51.425Z,48.80
2018-09-29T01:26:53.661Z,48.70
2018-09-29T01:27:55.829Z,47.90
2018-09-29T01:28:58.009Z,48.10
2018-09-29T01:30:00.205Z,47.70
2018-09-29T01:31:02.501Z,47.70
2018-09-29T01:32:04.736Z,47.40
2018-09-29T01:33:06.933Z,47.50
2018-09-29T01:34:09.273Z,48.70
2018-09-29T01:35:11.490Z,48.00
2018-09-29T01:36:13.859Z,47.40
2018-09-29T01:37:16.078Z,47.50
2018-09-29T01:38:18.480Z,47.60
2018-09-29T01:39:20.745Z,48.40
2018-09-29T01:40:22.950Z,47.40
2018-09-29T01:41:25.109Z,48.00
2018-09-29T01:42:27.285Z,48.50
2018-09-29T01:43:29.492Z,48.50
2018-09-29T01:44:31.630Z,48.90
2018-09-29T01:45:33.797Z,48.90
2018-09-29T01:46:36.154Z,48.90
2018-09-29T01:47:38.370Z,49.20
2018-09-29T01:48:40.562Z,48.40
2018-09-29T01:49:42.774Z,49.30
2018-09-29T01:50:44.986Z,49.20
2018-09-29T01:51:47.223Z,49.20
2018-09-29T01:52:49.461Z,48.70
2018-09-29T01:53:51.710Z,49.10
2018-09-29T01:54:53.881Z,49.80
2018-09-29T01:55:56.081Z,49.00
2018-09-29T01:56:58.285Z,48.40
2018-09-29T01:58:00.509Z,48.70
2018-09-29T01:59:02.754Z,48.50
2018-09-29T02:00:04.976Z,49.80
2018-09-29T02:01:07.146Z,49.40
2018-09-29T02:02:09.337Z,49.10
2018-09-29T02:03:12.238Z,49.40
2018-09-29T02:04:14.425Z,48.80
2018-09-29T02:05:16.840Z,49.10
2018-09-29T02:06:19.259Z,48.50
2018-09-29T02:07:21.809Z,49.10
2018-09-29T02:08:24.013Z,50.50
2018-09-29T02:09:26.189Z,50.60
2018-09-29T02:10:28.591Z,49.10
2018-09-29T02:11:30.769Z,50.20
2018-09-29T02:12:32.929Z,49.40
2018-09-29T02:13:35.133Z,50.20
2018-09-29T02:14:37.286Z,51.00
2018-09-29T02:15:39.490Z,50.80
2018-09-29T02:16:41.661Z,50.90
2018-09-29T02:17:43.867Z,51.40
2018-09-29T02:18:46.024Z,51.30
2018-09-29T02:19:48.191Z,51.00
2018-09-29T02:20:50.440Z,51.10
2018-09-29T02:21:52.745Z,50.10
2018-09-29T02:22:55.302Z,49.70
2018-09-29T02:23:57.467Z,50.40
2018-09-29T02:24:59.678Z,50.70
2018-09-29T02:26:01.848Z,49.80
2018-09-29T02:27:04.033Z,48.80
2018-09-29T02:28:06.218Z,48.80
2018-09-29T02:29:08.396Z,48.80
2018-09-29T02:30:10.581Z,48.20
2018-09-29T02:31:12.789Z,48.40
2018-09-29T02:32:14.968Z,48.20
2018-09-29T02:33:17.166Z,48.20
2018-09-29T02:34:19.690Z,47.90
2018-09-29T02:35:21.962Z,48.00
2018-09-29T02:36:24.142Z,48.10
2018-09-29T02:37:26.368Z,48.10
2018-09-29T02:38:28.559Z,48.20
2018-09-29T02:39:30.741Z,48.10
2018-09-29T02:40:32.924Z,48.20
2018-09-29T02:41:35.103Z,48.50
2018-09-29T02:42:37.273Z,48.50
2018-09-29T02:43:39.485Z,48.60
2018-09-29T02:44:41.698Z,48.60
2018-09-29T02:45:43.854Z,48.60
2018-09-29T02:46:46.051Z,48.60
2018-09-29T02:47:48.267Z,48.50
2018-09-29T02:48:50.435Z,48.20
2018-09-29T02:49:52.693Z,47.80
2018-09-29T02:50:54.981Z,48.00
2018-09-29T02:51:57.184Z,48.00
2018-09-29T02:52:59.347Z,48.50
2018-09-29T02:54:01.554Z,48.90
2018-09-29T02:55:04.198Z,48.40
2018-09-29T02:56:06.429Z,48.10
2018-09-29T02:57:08.666Z,48.40
2018-09-29T02:58:10.873Z,48.80
2018-09-29T02:59:13.066Z,48.40
2018-09-29T03:00:15.280Z,48.70
2018-09-29T03:01:17.481Z,48.40
2018-09-29T03:02:19.945Z,47.80
2018-09-29T03:03:22.144Z,47.30
2018-09-29T03:04:24.328Z,47.40
2018-09-29T03:05:26.472Z,47.40
2018-09-29T03:06:28.652Z,47.50
2018-09-29T03:07:30.833Z,47.50
2018-09-29T03:08:33.022Z,47.30
2018-09-29T03:09:35.249Z,47.20
2018-09-29T03:10:37.466Z,47.50
2018-09-29T03:11:39.634Z,47.50
2018-09-29T03:12:41.874Z,46.80
2018-09-29T03:13:44.077Z,47.10
2018-09-29T03:14:46.267Z,47.80
2018-09-29T03:15:48.674Z,47.40
2018-09-29T03:16:50.850Z,46.80
2018-09-29T03:17:53.114Z,46.70
2018-09-29T03:18:55.399Z,47.00
2018-09-29T03:19:57.626Z,47.60
2018-09-29T03:20:59.870Z,48.00
2018-09-29T03:22:02.103Z,47.50
2018-09-29T03:23:04.313Z,46.80
2018-09-29T03:24:06.540Z,47.30
2018-09-29T03:25:08.717Z,48.10
2018-09-29T03:26:10.922Z,46.80
2018-09-29T03:27:13.089Z,46.60
2018-09-29T03:28:15.257Z,46.60
2018-09-29T03:29:17.903Z,47.60
2018-09-29T03:30:20.670Z,47.70
2018-09-29T03:31:23.579Z,47.00
2018-09-29T03:32:25.755Z,46.60
2018-09-29T03:33:28.006Z,46.50
2018-09-29T03:34:30.220Z,47.00
2018-09-29T03:35:32.457Z,47.20
2018-09-29T03:36:34.618Z,47.20
2018-09-29T03:37:36.773Z,47.30
2018-09-29T03:38:38.954Z,48.00
2018-09-29T03:39:41.134Z,47.00
2018-09-29T03:40:43.323Z,47.00
2018-09-29T03:41:45.507Z,46.70
2018-09-29T03:42:47.709Z,47.30
2018-09-29T03:43:49.873Z,47.40
2018-09-29T03:44:52.049Z,48.00
2018-09-29T03:45:54.218Z,47.90
2018-09-29T03:46:56.407Z,48.10
2018-09-29T03:47:58.590Z,48.00
2018-09-29T03:49:00.782Z,47.80
2018-09-29T03:50:03.027Z,47.30
2018-09-29T03:51:05.207Z,47.60
2018-09-29T03:52:07.366Z,47.80
2018-09-29T03:53:09.518Z,47.80
2018-09-29T03:54:11.724Z,47.80
2018-09-29T03:55:13.953Z,47.80
2018-09-29T03:56:16.131Z,47.80
2018-09-29T03:57:18.327Z,47.80
2018-09-29T03:58:20.809Z,47.80
2018-09-29T03:59:23.012Z,47.70
2018-09-29T04:00:25.249Z,47.80
2018-09-29T04:01:27.437Z,47.70
2018-09-29T04:02:29.641Z,47.80
2018-09-29T04:03:32.714Z,47.80
2018-09-29T04:04:34.878Z,47.80
2018-09-29T04:05:37.082Z,47.30
2018-09-29T04:06:39.280Z,48.10
2018-09-29T04:07:41.436Z,48.00
2018-09-29T04:08:44.267Z,48.10
2018-09-29T04:09:46.687Z,48.30
2018-09-29T04:10:48.899Z,48.30
2018-09-29T04:11:51.106Z,48.20
2018-09-29T04:12:53.456Z,48.20
2018-09-29T04:13:55.794Z,48.20
2018-09-29T04:14:57.954Z,47.90
2018-09-29T04:16:00.651Z,48.20
2018-09-29T04:17:02.939Z,48.20
2018-09-29T04:18:05.539Z,48.20
2018-09-29T04:19:07.800Z,48.30
2018-09-29T04:20:10.012Z,48.30
2018-09-29T04:21:12.206Z,50.00
2018-09-29T04:22:14.398Z,49.60
2018-09-29T04:23:16.562Z,49.40
2018-09-29T04:24:18.816Z,49.80
2018-09-29T04:25:21.554Z,50.00
2018-09-29T04:26:23.874Z,50.10
2018-09-29T04:27:26.042Z,50.30
2018-09-29T04:28:28.254Z,50.30
2018-09-29T04:29:30.443Z,50.60
2018-09-29T04:30:32.611Z,50.80
2018-09-29T04:31:34.771Z,50.90
2018-09-29T04:32:36.959Z,50.60
2018-09-29T04:33:39.127Z,50.80
2018-09-29T04:34:41.284Z,49.90
2018-09-29T04:35:43.449Z,49.80
2018-09-29T04:36:45.602Z,49.70
2018-09-29T04:37:47.987Z,49.50
2018-09-29T04:38:50.182Z,49.20
2018-09-29T04:39:52.446Z,49.30
2018-09-29T04:40:54.654Z,49.40
2018-09-29T04:41:56.819Z,49.50
2018-09-29T04:42:59.067Z,49.40
2018-09-29T04:44:01.316Z,49.60
2018-09-29T04:45:03.724Z,49.60
2018-09-29T04:46:05.913Z,49.30
2018-09-29T04:47:08.110Z,49.30
2018-09-29T04:48:10.285Z,49.20
2018-09-29T04:49:12.508Z,49.20
2018-09-29T04:50:14.700Z,49.20
2018-09-29T04:51:16.944Z,49.30
2018-09-29T04:52:19.115Z,49.30
2018-09-29T04:53:21.285Z,49.20
2018-09-29T04:54:24.352Z,49.30
2018-09-29T04:55:26.557Z,49.40
2018-09-29T04:56:29.161Z,49.50
2018-09-29T04:57:38.001Z,49.50
2018-09-29T04:58:40.175Z,49.50
2018-09-29T04:59:42.369Z,49.70
2018-09-29T05:00:44.514Z,50.10
2018-09-29T05:01:46.694Z,50.00
2018-09-29T05:02:48.881Z,50.20
2018-09-29T05:03:51.081Z,50.40
2018-09-29T05:04:53.266Z,50.60
2018-09-29T05:05:55.418Z,50.30
2018-09-29T05:06:57.609Z,50.60
2018-09-29T05:08:00.017Z,50.60
2018-09-29T05:09:03.259Z,51.30
2018-09-29T05:10:05.632Z,50.70
2018-09-29T05:11:07.926Z,50.80
2018-09-29T05:12:10.218Z,50.70
2018-09-29T05:13:12.419Z,50.60
2018-09-29T05:14:14.646Z,50.60
2018-09-29T05:15:17.047Z,50.60
2018-09-29T05:16:19.390Z,50.60
2018-09-29T05:17:21.602Z,50.40
2018-09-29T05:18:24.046Z,50.30
2018-09-29T05:19:26.207Z,51.10
2018-09-29T05:20:28.397Z,51.30
2018-09-29T05:21:30.545Z,50.40
2018-09-29T05:22:32.705Z,50.40
2018-09-29T05:23:34.905Z,50.30
2018-09-29T05:24:37.066Z,50.90
2018-09-29T05:25:39.374Z,51.30
2018-09-29T05:26:41.538Z,51.50
2018-09-29T05:27:43.698Z,51.30
2018-09-29T05:28:45.898Z,51.30
2018-09-29T05:29:48.073Z,51.20
2018-09-29T05:30:50.284Z,51.20
2018-09-29T05:31:52.573Z,51.20
2018-09-29T05:32:54.752Z,51.20
2018-09-29T05:33:56.967Z,51.70
2018-09-29T05:34:59.175Z,51.40
2018-09-29T05:36:01.364Z,51.30
2018-09-29T05:37:03.594Z,51.60
2018-09-29T05:38:05.921Z,51.90
2018-09-29T05:39:08.477Z,51.70
2018-09-29T05:40:10.632Z,51.80
2018-09-29T05:41:12.835Z,52.20
2018-09-29T05:42:14.987Z,51.80
2018-09-29T05:43:17.155Z,51.60
2018-09-29T05:44:19.325Z,51.70
2018-09-29T05:45:21.523Z,51.00
2018-09-29T05:46:23.754Z,51.60
2018-09-29T05:47:26.191Z,51.10
2018-09-29T05:48:28.403Z,52.00
2018-09-29T05:49:30.561Z,51.70
2018-09-29T05:50:32.727Z,51.30
2018-09-29T05:51:34.921Z,51.20
2018-09-29T05:52:37.085Z,51.00
2018-09-29T05:53:39.342Z,51.00
2018-09-29T05:54:41.522Z,51.20
2018-09-29T05:55:43.714Z,51.30
2018-09-29T05:56:45.917Z,52.00
2018-09-29T05:57:48.144Z,51.80
2018-09-29T05:58:50.345Z,51.60
2018-09-29T05:59:52.574Z,52.10
2018-09-29T06:00:54.768Z,51.00
2018-09-29T06:01:57.000Z,50.60
2018-09-29T06:02:59.178Z,50.50
2018-09-29T06:04:01.334Z,52.00
2018-09-29T06:05:03.597Z,52.20
2018-09-29T06:06:05.964Z,51.10
2018-09-29T06:07:08.268Z,51.00
2018-09-29T06:08:10.478Z,51.00
2018-09-29T06:09:12.702Z,51.00
2018-09-29T06:10:15.011Z,51.10
2018-09-29T06:11:17.181Z,51.10
2018-09-29T06:12:19.317Z,51.00
2018-09-29T06:13:21.498Z,51.10
2018-09-29T06:14:23.670Z,51.10
2018-09-29T06:15:25.805Z,51.10
2018-09-29T06:16:28.090Z,51.10
2018-09-29T06:17:30.264Z,51.70
2018-09-29T06:18:32.428Z,51.10
2018-09-29T06:19:34.595Z,51.20
2018-09-29T06:20:36.789Z,51.80
2018-09-29T06:21:38.945Z,51.20
2018-09-29T06:22:41.111Z,51.70
2018-09-29T06:23:43.290Z,51.90
2018-09-29T06:24:45.452Z,51.70
2018-09-29T06:25:47.631Z,52.10
2018-09-29T06:26:49.788Z,52.50
2018-09-29T06:27:52.126Z,52.10
2018-09-29T06:28:54.206Z,52.20
2018-09-29T06:29:56.399Z,51.70
2018-09-29T06:30:58.577Z,52.10
2018-09-29T06:32:00.749Z,52.20
2018-09-29T06:33:02.938Z,51.80
2018-09-29T06:34:05.183Z,51.80
2018-09-29T06:35:07.336Z,51.90
2018-09-29T06:36:09.591Z,52.20
2018-09-29T06:37:11.783Z,52.10
2018-09-29T06:38:13.972Z,52.20
2018-09-29T06:39:16.161Z,52.40
2018-09-29T06:40:18.369Z,52.20
2018-09-29T06:41:20.526Z,51.10
2018-09-29T06:42:22.837Z,51.60
2018-09-29T06:43:24.934Z,52.70
2018-09-29T06:44:27.121Z,53.10
2018-09-29T06:45:29.354Z,52.50
2018-09-29T06:46:31.538Z,51.60
2018-09-29T06:47:33.728Z,51.70
2018-09-29T06:48:35.849Z,51.30
2018-09-29T06:49:37.991Z,50.80
2018-09-29T06:50:40.174Z,50.70
2018-09-29T06:51:42.382Z,50.60
2018-09-29T06:52:44.538Z,50.30
2018-09-29T06:53:46.709Z,49.80
2018-09-29T06:54:48.886Z,49.50
2018-09-29T06:55:52.077Z,49.80
2018-09-29T06:56:54.302Z,49.50
2018-09-29T06:57:56.487Z,49.40
2018-09-29T06:58:58.693Z,49.10
2018-09-29T07:00:00.914Z,49.00
2018-09-29T07:01:03.130Z,48.70
2018-09-29T07:02:05.325Z,48.80
2018-09-29T07:03:07.581Z,48.60
2018-09-29T07:04:09.788Z,48.20
2018-09-29T07:05:12.083Z,49.10
2018-09-29T07:06:14.984Z,49.70
2018-09-29T07:07:17.182Z,50.60
2018-09-29T07:08:19.474Z,49.50
2018-09-29T07:09:21.641Z,49.50
2018-09-29T07:10:23.947Z,49.90
2018-09-29T07:11:26.139Z,49.90
2018-09-29T07:12:28.389Z,49.90
2018-09-29T07:13:30.570Z,50.00
2018-09-29T07:14:33.005Z,49.10
2018-09-29T07:15:35.191Z,48.80
2018-09-29T07:16:37.507Z,49.00
2018-09-29T07:17:39.782Z,48.50
2018-09-29T07:18:41.946Z,48.90
2018-09-29T07:19:44.122Z,48.40
2018-09-29T07:20:46.346Z,49.30
2018-09-29T07:21:48.584Z,49.10
2018-09-29T07:22:50.698Z,48.80
2018-09-29T07:23:53.003Z,48.70
2018-09-29T07:24:55.162Z,48.40
2018-09-29T07:25:57.327Z,48.60
2018-09-29T07:26:59.524Z,47.50
2018-09-29T07:28:08.593Z,47.50
2018-09-29T07:29:10.814Z,47.10
2018-09-29T07:30:12.981Z,45.10
2018-09-29T07:31:15.325Z,46.40
2018-09-29T07:32:17.561Z,45.70
2018-09-29T07:33:19.733Z,45.60
2018-09-29T07:34:22.017Z,46.50
2018-09-29T07:35:24.257Z,45.80
2018-09-29T07:36:28.123Z,46.20
2018-09-29T07:37:30.301Z,46.10
2018-09-29T07:38:32.777Z,46.00
2018-09-29T07:39:35.058Z,46.20
2018-09-29T07:40:37.250Z,46.20
2018-09-29T07:41:39.425Z,46.40
2018-09-29T07:42:41.574Z,46.00
2018-09-29T07:43:43.726Z,46.30
2018-09-29T07:44:45.902Z,46.10
2018-09-29T07:45:51.278Z,46.00
2018-09-29T07:46:54.023Z,46.10
2018-09-29T07:47:56.530Z,44.70
2018-09-29T07:48:58.781Z,45.20
2018-09-29T07:50:00.971Z,45.50
2018-09-29T07:51:03.180Z,44.80
2018-09-29T07:52:05.646Z,44.40
2018-09-29T07:53:07.805Z,45.60
2018-09-29T07:54:09.967Z,44.70
2018-09-29T07:55:12.121Z,44.80
2018-09-29T07:56:14.294Z,45.20
2018-09-29T07:57:16.544Z,45.50
2018-09-29T07:58:18.761Z,45.10
2018-09-29T07:59:20.924Z,44.80
2018-09-29T08:00:23.114Z,43.60
2018-09-29T08:01:25.280Z,43.40
2018-09-29T08:02:27.437Z,44.10
2018-09-29T08:03:29.600Z,44.10
2018-09-29T08:04:31.784Z,45.30
2018-09-29T08:05:33.985Z,45.10
2018-09-29T08:06:36.259Z,45.10
2018-09-29T08:07:38.428Z,44.70
2018-09-29T08:08:40.587Z,43.70
2018-09-29T08:09:42.749Z,44.40
2018-09-29T08:10:45.117Z,43.60
2018-09-29T08:11:47.399Z,43.60
2018-09-29T08:12:49.581Z,43.60
2018-09-29T08:13:51.798Z,43.60
2018-09-29T08:14:53.959Z,42.10
2018-09-29T08:15:56.557Z,42.70
2018-09-29T08:16:58.709Z,43.00
2018-09-29T08:18:01.110Z,42.50
2018-09-29T08:19:03.278Z,43.60
2018-09-29T08:20:05.438Z,43.60
2018-09-29T08:21:07.581Z,42.80
2018-09-29T08:22:09.965Z,43.70
2018-09-29T08:23:12.161Z,43.90
2018-09-29T08:24:14.344Z,43.50
2018-09-29T08:25:16.458Z,42.80
2018-09-29T08:26:19.135Z,43.00
2018-09-29T08:27:21.406Z,41.80
2018-09-29T08:28:23.561Z,41.70
2018-09-29T08:29:25.701Z,42.20
2018-09-29T08:30:27.899Z,42.80
2018-09-29T08:31:30.809Z,41.90
2018-09-29T08:32:33.101Z,42.20
2018-09-29T08:33:35.252Z,42.50
2018-09-29T08:34:37.574Z,42.50
2018-09-29T08:35:39.735Z,42.50
2018-09-29T08:36:41.956Z,42.50
2018-09-29T08:37:44.514Z,43.00
2018-09-29T08:38:46.676Z,43.00
2018-09-29T08:39:48.831Z,41.50
2018-09-29T08:40:51.022Z,41.80
2018-09-29T08:41:53.170Z,40.90
2018-09-29T08:42:55.300Z,40.50
2018-09-29T08:43:57.449Z,41.50
2018-09-29T08:44:59.590Z,41.70
2018-09-29T08:47:10.249Z,41.60
2018-09-29T08:48:12.412Z,41.40
2018-09-29T08:49:14.564Z,42.20
2018-09-29T08:50:16.724Z,41.60
2018-09-29T08:51:18.887Z,41.10
2018-09-29T08:52:21.239Z,40.20
2018-09-29T08:53:23.472Z,40.40
2018-09-29T08:54:25.622Z,40.40
2018-09-29T08:55:27.867Z,40.30
2018-09-29T08:56:30.011Z,40.20
2018-09-29T08:57:32.391Z,39.80
2018-09-29T08:58:34.538Z,40.50
2018-09-29T08:59:36.673Z,40.50
2018-09-29T09:00:39.150Z,39.80
2018-09-29T09:01:41.398Z,39.80
2018-09-29T09:02:43.612Z,41.00
2018-09-29T09:03:45.892Z,41.00
2018-09-29T09:04:48.087Z,40.90
2018-09-29T09:05:50.245Z,40.00
2018-09-29T09:06:52.458Z,41.00
2018-09-29T09:07:55.880Z,39.90
2018-09-29T09:08:58.110Z,40.50
2018-09-29T09:10:00.283Z,40.80
2018-09-29T09:11:02.514Z,39.90
2018-09-29T09:12:04.837Z,40.00
2018-09-29T09:13:07.150Z,40.10
2018-09-29T09:14:09.311Z,39.70
2018-09-29T09:15:11.488Z,40.40
2018-09-29T09:16:13.613Z,40.40
2018-09-29T09:17:15.739Z,39.50
2018-09-29T09:18:18.003Z,40.00
2018-09-29T09:19:20.219Z,40.40
2018-09-29T09:20:22.582Z,39.90
2018-09-29T09:21:24.754Z,40.00
2018-09-29T09:22:26.898Z,40.10
2018-09-29T09:23:29.099Z,41.00
2018-09-29T09:24:31.506Z,40.20
2018-09-29T09:25:33.641Z,40.10
2018-09-29T09:26:35.817Z,40.20
2018-09-29T09:27:38.026Z,40.10
2018-09-29T09:28:40.390Z,40.10
2018-09-29T09:29:42.782Z,40.00
2018-09-29T09:30:44.994Z,40.10
2018-09-29T09:31:47.171Z,40.90
2018-09-29T09:32:49.306Z,40.10
2018-09-29T09:33:51.468Z,40.10
2018-09-29T09:34:53.621Z,40.10
2018-09-29T09:35:55.793Z,40.10
2018-09-29T09:36:57.982Z,40.20
2018-09-29T09:38:00.145Z,40.50
2018-09-29T09:39:02.346Z,40.20
2018-09-29T09:40:04.558Z,39.70
2018-09-29T09:41:06.730Z,38.30
2018-09-29T09:42:08.882Z,39.20
2018-09-29T09:43:11.037Z,39.20
2018-09-29T09:44:13.189Z,39.30
2018-09-29T09:45:15.357Z,39.10
2018-09-29T09:46:17.513Z,38.70
2018-09-29T09:47:19.669Z,39.50
2018-09-29T09:48:21.873Z,39.50
2018-09-29T09:49:24.184Z,39.50
2018-09-29T09:50:26.346Z,39.10
2018-09-29T09:51:28.521Z,39.10
2018-09-29T09:52:30.673Z,39.00
2018-09-29T09:53:32.914Z,39.40
2018-09-29T09:54:35.123Z,38.80
2018-09-29T09:55:37.282Z,39.70
2018-09-29T09:56:39.514Z,39.60
2018-09-29T09:57:41.713Z,39.50
2018-09-29T09:58:44.062Z,38.30
2018-09-29T09:59:46.270Z,38.40
2018-09-29T10:00:54.260Z,38.00
2018-09-29T10:03:03.801Z,38.80
2018-09-29T10:04:06.299Z,39.00
2018-09-29T10:05:08.494Z,39.10
2018-09-29T10:06:10.659Z,39.40
2018-09-29T10:07:12.802Z,39.60
2018-09-29T10:08:14.977Z,38.50
2018-09-29T10:09:17.138Z,39.10
2018-09-29T10:10:19.701Z,39.80
2018-09-29T10:11:21.903Z,40.20
2018-09-29T10:12:24.065Z,39.40
2018-09-29T10:13:26.307Z,39.80
2018-09-29T10:14:28.710Z,40.80
2018-09-29T10:15:31.132Z,40.10
2018-09-29T10:16:33.845Z,39.20
2018-09-29T10:17:36.288Z,39.20
2018-09-29T10:18:38.407Z,39.70
2018-09-29T10:19:40.590Z,40.30
2018-09-29T10:20:42.761Z,40.00
2018-09-29T10:21:45.066Z,40.10
2018-09-29T10:22:47.292Z,39.80
2018-09-29T10:23:49.422Z,40.00
2018-09-29T10:24:51.615Z,39.20
2018-09-29T10:25:53.781Z,39.40
2018-09-29T10:26:55.922Z,39.50
2018-09-29T10:27:58.086Z,39.60
2018-09-29T10:29:00.245Z,40.00
2018-09-29T10:30:02.822Z,39.80
2018-09-29T10:31:05.028Z,40.00
2018-09-29T10:32:07.209Z,41.00
2018-09-29T10:33:09.454Z,41.40
2018-09-29T10:34:11.849Z,41.30
2018-09-29T10:35:14.021Z,40.10
2018-09-29T10:36:16.168Z,40.10
2018-09-29T10:37:18.396Z,39.80
2018-09-29T10:38:20.594Z,40.00
2018-09-29T10:39:22.722Z,40.20
2018-09-29T10:40:24.901Z,40.50
2018-09-29T10:41:27.295Z,40.80
2018-09-29T10:42:29.565Z,40.90
2018-09-29T10:43:31.726Z,40.80
2018-09-29T10:44:33.897Z,40.90
2018-09-29T10:45:36.045Z,41.50
2018-09-29T10:46:38.202Z,41.30
2018-09-29T10:47:40.342Z,41.70
2018-09-29T10:48:42.517Z,41.70
2018-09-29T10:49:44.715Z,40.60
2018-09-29T10:50:46.881Z,40.50
2018-09-29T10:51:49.065Z,40.90
2018-09-29T10:52:51.228Z,40.80
2018-09-29T10:53:53.372Z,40.70
2018-09-29T10:54:55.506Z,41.00
2018-09-29T10:55:57.676Z,40.40
2018-09-29T10:56:59.832Z,40.80
2018-09-29T10:58:01.971Z,41.10
2018-09-29T10:59:04.185Z,41.80
2018-09-29T11:00:06.320Z,41.80
2018-09-29T11:01:08.462Z,41.60
2018-09-29T11:02:10.646Z,41.90
2018-09-29T11:03:12.814Z,41.60
2018-09-29T11:04:14.949Z,41.90
2018-09-29T11:05:17.106Z,41.60
2018-09-29T11:06:19.253Z,40.90
2018-09-29T11:07:21.500Z,40.40
2018-09-29T11:08:23.676Z,41.00
2018-09-29T11:09:25.826Z,41.90
2018-09-29T11:10:27.991Z,40.50
2018-09-29T11:11:30.243Z,41.00
2018-09-29T11:12:32.466Z,40.80
2018-09-29T11:13:34.605Z,41.90
2018-09-29T11:14:36.762Z,41.00
2018-09-29T11:15:38.921Z,40.40
2018-09-29T11:16:41.123Z,40.60
2018-09-29T11:17:43.283Z,41.00
2018-09-29T11:18:45.441Z,40.80
2018-09-29T11:19:47.777Z,41.20
2018-09-29T11:20:50.250Z,41.20
2018-09-29T11:21:52.357Z,40.30
2018-09-29T11:22:54.506Z,41.50
2018-09-29T11:23:56.662Z,41.00
2018-09-29T11:24:58.800Z,41.40
2018-09-29T11:26:00.966Z,40.40
2018-09-29T11:27:03.182Z,40.00
2018-09-29T11:28:05.400Z,40.60
2018-09-29T11:29:07.610Z,40.20
2018-09-29T11:30:09.773Z,40.80
2018-09-29T11:31:11.958Z,40.20
2018-09-29T11:32:14.092Z,40.70
2018-09-29T11:33:16.274Z,41.00
2018-09-29T11:34:18.537Z,40.70
2018-09-29T11:35:20.824Z,40.80
2018-09-29T11:36:22.981Z,40.50
2018-09-29T11:37:25.198Z,40.60
2018-09-29T11:38:27.383Z,40.80
2018-09-29T11:39:29.594Z,41.20
2018-09-29T11:40:31.810Z,40.00
2018-09-29T11:41:34.119Z,39.70
2018-09-29T11:42:36.261Z,39.30
2018-09-29T11:43:38.405Z,39.70
2018-09-29T11:44:40.635Z,39.80
2018-09-29T11:45:42.708Z,39.10
2018-09-29T11:46:44.861Z,39.30
2018-09-29T11:47:47.042Z,39.30
2018-09-29T11:48:49.174Z,39.30
2018-09-29T11:49:51.416Z,39.30
2018-09-29T11:50:53.622Z,40.10
2018-09-29T11:51:55.757Z,39.60
2018-09-29T11:52:57.999Z,40.00
2018-09-29T11:54:00.158Z,39.30
2018-09-29T11:55:02.369Z,40.10
2018-09-29T11:56:04.552Z,38.80
2018-09-29T11:57:06.734Z,37.90
2018-09-29T11:58:08.887Z,38.10
2018-09-29T11:59:11.049Z,38.70
2018-09-29T12:00:13.469Z,38.90
2018-09-29T12:01:15.831Z,38.10
2018-09-29T12:02:18.049Z,38.40
2018-09-29T12:03:20.190Z,39.10
2018-09-29T12:04:22.356Z,38.80
2018-09-29T12:05:24.542Z,38.70
2018-09-29T12:06:26.784Z,39.40
2018-09-29T12:07:28.840Z,39.60
2018-09-29T12:08:31.038Z,38.70
2018-09-29T12:09:33.199Z,38.70
2018-09-29T12:10:35.569Z,39.10
2018-09-29T12:11:37.868Z,37.70
2018-09-29T12:12:40.082Z,38.20
2018-09-29T12:13:42.328Z,37.20
2018-09-29T12:14:44.516Z,37.40
2018-09-29T12:15:46.656Z,37.60
2018-09-29T12:16:49.121Z,38.20
2018-09-29T12:17:51.307Z,38.90
2018-09-29T12:18:53.457Z,38.30
2018-09-29T12:19:55.789Z,37.10
2018-09-29T12:20:57.941Z,38.20
2018-09-29T12:22:00.114Z,38.40
2018-09-29T12:23:02.279Z,37.80
2018-09-29T12:24:04.456Z,37.80
2018-09-29T12:25:06.676Z,38.10
2018-09-29T12:26:08.861Z,37.60
2018-09-29T12:27:11.021Z,38.20
2018-09-29T12:28:13.177Z,38.60
2018-09-29T12:29:15.584Z,37.60
2018-09-29T12:30:17.750Z,37.80
2018-09-29T12:31:20.013Z,36.20
2018-09-29T12:32:22.164Z,36.40
2018-09-29T12:33:24.319Z,36.20
2018-09-29T12:34:26.485Z,36.80
2018-09-29T12:35:28.713Z,36.40
2018-09-29T12:36:30.874Z,36.60
2018-09-29T12:37:33.070Z,37.00
2018-09-29T12:38:35.275Z,37.00
2018-09-29T12:39:37.501Z,36.80
2018-09-29T12:40:39.730Z,37.00
2018-09-29T12:41:41.904Z,37.50
2018-09-29T12:42:44.134Z,37.50
2018-09-29T12:43:46.265Z,36.90
2018-09-29T12:44:48.451Z,37.00
2018-09-29T12:45:50.565Z,36.50
2018-09-29T12:46:52.721Z,36.20
2018-09-29T12:47:54.874Z,36.60
2018-09-29T12:48:57.179Z,36.60
2018-09-29T12:49:59.358Z,37.00
2018-09-29T12:51:01.498Z,37.00
2018-09-29T12:52:03.849Z,37.30
2018-09-29T12:53:05.925Z,37.40
2018-09-29T12:54:08.122Z,37.00
2018-09-29T12:55:10.297Z,37.30
2018-09-29T12:56:12.548Z,37.70
2018-09-29T12:57:14.683Z,37.20
2018-09-29T12:58:16.857Z,38.00
2018-09-29T12:59:19.022Z,38.00
2018-09-29T13:00:21.292Z,37.00
2018-09-29T13:01:23.437Z,36.60
2018-09-29T13:02:25.601Z,37.00
2018-09-29T13:03:27.857Z,35.40
2018-09-29T13:04:30.005Z,37.10
2018-09-29T13:05:32.145Z,36.70
2018-09-29T13:06:34.325Z,37.10
2018-09-29T13:07:36.470Z,36.70
2018-09-29T13:08:38.617Z,35.90
2018-09-29T13:09:41.023Z,36.50
2018-09-29T13:10:43.264Z,36.10
2018-09-29T13:11:45.530Z,35.40
2018-09-29T13:12:48.159Z,35.40
2018-09-29T13:13:50.354Z,35.80
2018-09-29T13:14:52.501Z,35.40
2018-09-29T13:15:54.643Z,35.70
2018-09-29T13:16:56.903Z,35.90
2018-09-29T13:17:59.045Z,36.00
2018-09-29T13:19:01.212Z,35.00
2018-09-29T13:20:04.009Z,35.50
2018-09-29T13:21:06.257Z,35.90
2018-09-29T13:22:08.411Z,35.70
2018-09-29T13:23:10.619Z,35.10
2018-09-29T13:24:12.862Z,35.10